createdAt,value
2023-05-19T00:01:04.048Z,0
2023-05-19T00:06:04.050Z,0
2023-05-19T00:11:04.057Z,0
2023-05-19T00:16:04.097Z,0
2023-05-19T00:21:04.226Z,0
2023-05-19T00:26:04.040Z,0
2023-05-19T00:31:04.044Z,0
2023-05-19T00:36:04.110Z,0
2023-05-19T00:41:04.008Z,0
2023-05-19T00:46:03.986Z,0
2023-05-19T00:51:04.070Z,0
2023-05-19T00:56:04.122Z,0
2023-05-19T01:01:04.977Z,0
2023-05-19T01:06:04.014Z,0
2023-05-19T01:11:04.031Z,0
2023-05-19T01:16:04.055Z,0
2023-05-19T01:21:04.067Z,0
2023-05-19T01:26:04.090Z,0
2023-05-19T01:31:04.079Z,0
2023-05-19T01:36:04.102Z,0
2023-05-19T01:41:04.042Z,0
2023-05-19T01:46:04.040Z,0
2023-05-19T01:51:04.066Z,0
2023-05-19T01:56:04.026Z,0
2023-05-19T02:01:04.040Z,0
2023-05-19T02:06:04.092Z,0
2023-05-19T02:11:04.062Z,0
2023-05-19T02:16:04.073Z,0
2023-05-19T02:21:04.100Z,0
2023-05-19T02:26:04.042Z,0
2023-05-19T02:31:04.050Z,0
2023-05-19T02:36:04.066Z,0
2023-05-19T02:41:04.057Z,0
2023-05-19T02:46:04.102Z,0
2023-05-19T02:51:04.264Z,0
2023-05-19T02:56:04.112Z,0
2023-05-19T03:01:04.068Z,0
2023-05-19T03:06:04.206Z,0
2023-05-19T03:11:04.045Z,0
2023-05-19T03:16:04.009Z,0
2023-05-19T03:21:04.050Z,0
2023-05-19T03:26:04.079Z,0
2023-05-19T03:31:04.049Z,0
2023-05-19T03:36:04.167Z,0
2023-05-19T03:41:04.112Z,0
2023-05-19T03:46:04.115Z,0
2023-05-19T03:51:04.034Z,0
2023-05-19T03:56:04.091Z,0
2023-05-19T04:01:04.060Z,267
2023-05-19T04:06:04.054Z,266
2023-05-19T04:11:04.071Z,266
2023-05-19T04:16:04.132Z,268
2023-05-19T04:21:04.272Z,268
2023-05-19T04:26:04.056Z,269
2023-05-19T04:31:04.060Z,270
2023-05-19T04:36:04.099Z,271
2023-05-19T04:41:04.135Z,274
2023-05-19T04:46:04.108Z,276
2023-05-19T04:51:04.105Z,279
2023-05-19T04:56:04.119Z,280
2023-05-19T05:01:04.085Z,280
2023-05-19T05:06:04.084Z,282
2023-05-19T05:11:04.031Z,281
2023-05-19T05:16:04.108Z,278
2023-05-19T05:21:04.104Z,278
2023-05-19T05:26:04.101Z,283
2023-05-19T05:31:04.104Z,290
2023-05-19T05:36:04.082Z,288
2023-05-19T05:41:04.147Z,290
2023-05-19T05:46:04.189Z,296
2023-05-19T05:51:04.082Z,297
2023-05-19T05:56:04.084Z,293
2023-05-19T06:01:04.113Z,293
2023-05-19T06:06:04.085Z,289
2023-05-19T06:11:04.084Z,287
2023-05-19T06:16:04.073Z,291
2023-05-19T06:21:04.129Z,299
2023-05-19T06:26:04.115Z,304
2023-05-19T06:31:04.082Z,306
2023-05-19T06:36:04.125Z,308
2023-05-19T06:41:04.097Z,316
2023-05-19T06:46:04.142Z,331
2023-05-19T06:51:04.152Z,337
2023-05-19T06:56:04.096Z,328
2023-05-19T07:01:04.164Z,334
2023-05-19T07:06:07.146Z,333
2023-05-19T07:11:04.127Z,360
2023-05-19T07:16:04.162Z,373
2023-05-19T07:21:04.231Z,315
2023-05-19T07:26:04.087Z,327
2023-05-19T07:31:04.117Z,341
2023-05-19T07:36:04.110Z,359
2023-05-19T07:41:04.092Z,373
2023-05-19T07:46:04.156Z,366
2023-05-19T07:51:04.105Z,327
2023-05-19T07:56:04.091Z,358
2023-05-19T08:01:04.199Z,334
2023-05-19T08:06:04.116Z,334
2023-05-19T08:11:04.124Z,356
2023-05-19T08:16:04.151Z,362
2023-05-19T08:21:04.163Z,327
2023-05-19T08:26:04.164Z,299
2023-05-19T08:31:04.131Z,307
2023-05-19T08:36:04.114Z,334
2023-05-19T08:41:04.164Z,355
2023-05-19T08:46:04.105Z,398
2023-05-19T08:51:04.129Z,367
2023-05-19T08:56:04.135Z,344
2023-05-19T09:01:04.159Z,331
2023-05-19T09:06:04.167Z,329
2023-05-19T09:11:04.229Z,298
2023-05-19T09:16:04.133Z,313
2023-05-19T09:21:04.142Z,314
2023-05-19T09:26:04.078Z,325
2023-05-19T09:31:04.173Z,334
2023-05-19T09:36:04.139Z,317
2023-05-19T09:41:04.092Z,321
2023-05-19T09:46:04.149Z,327
2023-05-19T09:51:04.132Z,349
2023-05-19T09:56:04.261Z,385
2023-05-19T10:01:04.214Z,361
2023-05-19T10:06:04.136Z,367
2023-05-19T10:11:04.152Z,389
2023-05-19T10:16:04.225Z,329
2023-05-19T10:21:04.122Z,384
2023-05-19T10:26:04.414Z,353
2023-05-19T10:31:04.157Z,432
2023-05-19T10:36:04.226Z,383
2023-05-19T10:41:04.441Z,471
2023-05-19T10:46:04.153Z,403
2023-05-19T10:51:04.214Z,329
2023-05-19T10:56:04.144Z,418
2023-05-19T11:01:04.117Z,342
2023-05-19T11:06:04.158Z,485
2023-05-19T11:11:04.163Z,358
2023-05-19T11:16:04.156Z,367
2023-05-19T11:21:04.150Z,388
2023-05-19T11:26:04.136Z,418
2023-05-19T11:31:04.205Z,411
2023-05-19T11:36:04.186Z,336
2023-05-19T11:41:04.237Z,383
2023-05-19T11:46:04.266Z,384
2023-05-19T11:51:04.242Z,381
2023-05-19T11:56:04.113Z,346
2023-05-19T12:01:04.213Z,411
2023-05-19T12:06:04.227Z,416
2023-05-19T12:11:04.162Z,393
2023-05-19T12:16:04.159Z,360
2023-05-19T12:21:04.170Z,336
2023-05-19T12:26:04.187Z,330
2023-05-19T12:31:04.160Z,347
2023-05-19T12:36:04.134Z,362
2023-05-19T12:41:04.167Z,380
2023-05-19T12:46:04.177Z,377
2023-05-19T12:51:04.327Z,374
2023-05-19T12:56:04.208Z,356
2023-05-19T13:01:04.225Z,324
2023-05-19T13:06:05.333Z,337
2023-05-19T13:11:04.305Z,347
2023-05-19T13:16:04.129Z,338
2023-05-19T13:21:04.207Z,330
2023-05-19T13:26:04.182Z,323
2023-05-19T13:31:04.233Z,322
2023-05-19T13:36:04.216Z,333
2023-05-19T13:41:04.162Z,353
2023-05-19T13:46:04.205Z,323
2023-05-19T13:51:04.202Z,309
2023-05-19T13:56:04.256Z,303
2023-05-19T14:01:04.201Z,298
2023-05-19T14:06:04.194Z,299
2023-05-19T14:11:04.190Z,286
2023-05-19T14:16:04.265Z,303
2023-05-19T14:21:04.180Z,301
2023-05-19T14:26:04.270Z,315
2023-05-19T14:31:04.176Z,315
2023-05-19T14:36:04.223Z,331
2023-05-19T14:41:04.212Z,339
2023-05-19T14:46:08.851Z,341
2023-05-19T14:51:04.187Z,340
2023-05-19T14:56:07.292Z,333
2023-05-19T15:01:04.263Z,333
2023-05-19T15:06:04.229Z,327
2023-05-19T15:11:05.347Z,322
2023-05-19T15:16:16.687Z,331
2023-05-19T15:21:04.206Z,319
2023-05-19T15:26:04.224Z,308
2023-05-19T15:31:04.285Z,292
2023-05-19T15:36:04.176Z,289
2023-05-19T15:41:04.259Z,299
2023-05-19T15:46:05.314Z,291
2023-05-19T15:51:04.237Z,298
2023-05-19T15:56:05.245Z,289
2023-05-19T16:01:04.241Z,284
2023-05-19T16:06:04.177Z,288
2023-05-19T16:11:04.284Z,287
2023-05-19T16:16:04.297Z,280
2023-05-19T16:21:04.236Z,281
2023-05-19T16:26:04.226Z,282
2023-05-19T16:31:04.230Z,283
2023-05-19T16:36:04.193Z,283
2023-05-19T16:41:04.456Z,284
2023-05-19T16:46:04.591Z,283
2023-05-19T16:51:04.227Z,284
2023-05-19T16:56:04.293Z,279
2023-05-19T17:01:04.266Z,284
2023-05-19T17:06:04.271Z,283
2023-05-19T17:11:04.719Z,282
2023-05-19T17:16:04.345Z,278
2023-05-19T17:21:04.626Z,274
2023-05-19T17:26:06.679Z,273
2023-05-19T17:31:04.246Z,271
2023-05-19T17:36:04.262Z,270
2023-05-19T17:41:04.433Z,268
2023-05-19T17:46:04.630Z,268
2023-05-19T17:51:07.333Z,268
2023-05-19T17:56:04.313Z,269
2023-05-19T18:01:05.510Z,268
2023-05-19T18:06:04.275Z,267
2023-05-19T18:11:04.239Z,268
2023-05-19T18:16:04.267Z,268
2023-05-19T18:21:04.242Z,266
2023-05-19T18:26:04.237Z,265
2023-05-19T18:31:04.255Z,0
2023-05-19T18:36:04.231Z,0
2023-05-19T18:41:04.268Z,0
2023-05-19T18:46:04.372Z,0
2023-05-19T18:51:04.329Z,0
2023-05-19T18:56:04.268Z,0
2023-05-19T19:01:05.296Z,0
2023-05-19T19:06:04.257Z,0
2023-05-19T19:11:04.225Z,0
2023-05-19T19:16:04.272Z,0
2023-05-19T19:21:04.246Z,0
2023-05-19T19:26:04.270Z,0
2023-05-19T19:31:04.238Z,0
2023-05-19T19:36:04.238Z,0
2023-05-19T19:41:04.294Z,0
2023-05-19T19:46:04.341Z,0
2023-05-19T19:51:04.325Z,0
2023-05-19T19:56:04.244Z,0
2023-05-19T20:01:04.289Z,0
2023-05-19T20:06:04.305Z,0
2023-05-19T20:11:04.325Z,0
2023-05-19T20:16:04.251Z,0
2023-05-19T20:21:04.338Z,0
2023-05-19T20:26:12.257Z,0
2023-05-19T20:31:04.315Z,0
2023-05-19T20:36:04.307Z,0
2023-05-19T20:41:04.288Z,0
2023-05-19T20:46:04.256Z,0
2023-05-19T20:51:04.287Z,0
2023-05-19T20:56:04.288Z,0
2023-05-19T21:01:05.334Z,0
2023-05-19T21:06:05.280Z,0
2023-05-19T21:11:05.282Z,0
2023-05-19T21:16:05.307Z,0
2023-05-19T21:21:05.300Z,0
2023-05-19T21:26:05.269Z,0
2023-05-19T21:31:05.326Z,0
2023-05-19T21:36:05.302Z,0
2023-05-19T21:41:05.304Z,0
2023-05-19T21:46:05.363Z,0
2023-05-19T21:51:05.282Z,0
2023-05-19T21:56:05.350Z,0
2023-05-19T22:01:05.344Z,0
2023-05-19T22:06:05.285Z,0
2023-05-19T22:11:05.284Z,0
2023-05-19T22:16:05.373Z,0
2023-05-19T22:21:05.282Z,0
2023-05-19T22:26:05.374Z,0
2023-05-19T22:31:05.511Z,0
2023-05-19T22:36:05.271Z,0
2023-05-19T22:41:05.372Z,0
2023-05-19T22:46:05.457Z,0
2023-05-19T22:51:05.285Z,0
2023-05-19T22:56:05.402Z,0
2023-05-19T23:01:05.499Z,0
2023-05-19T23:06:05.327Z,0
2023-05-19T23:11:05.289Z,0
2023-05-19T23:16:05.599Z,0
2023-05-19T23:21:05.348Z,0
2023-05-19T23:26:05.280Z,0
2023-05-19T23:31:05.327Z,0
2023-05-19T23:36:05.352Z,0
2023-05-19T23:41:05.358Z,0
2023-05-19T23:46:05.336Z,0
2023-05-19T23:51:05.336Z,0
2023-05-19T23:56:05.370Z,0
